Time;durP1;ratioP1;P1;durP2;ratioP2;P2;SDS_P1;SDS_P2;PMS_P1;PMS_P2;Temp;Humidity;BMP_temperature;BMP_pressure;BME280_temperature;BME280_humidity;BME280_pressure;Samples;Min_cycle;Max_cycle;Signal;HPM_P1;HPM_P2
2022/11/29 00:01:03;;;;;;;;;;;6.90;99.90;;;6.26;100.00;96931.56;5041426;28;20200;-40
2022/11/29 00:03:29;;;;;;;;;;;6.90;99.90;;;6.24;100.00;96924.63;5031803;28;19921;-40
2022/11/29 00:05:55;;;;;;;;;;;6.90;99.90;;;6.19;100.00;96924.75;5027827;28;19927;-40
2022/11/29 00:08:21;;;;;;;;;;;6.90;99.90;;;6.23;100.00;96934.25;5038567;28;20320;-40
2022/11/29 00:10:47;;;;;;;;;;;6.90;99.90;;;6.24;100.00;96935.94;5041762;28;20384;-40
2022/11/29 00:13:13;;;;;;;;;;;6.90;99.90;;;6.24;100.00;96930.69;5032712;28;19923;-40
2022/11/29 00:15:38;;;;;;;;;;;7.00;99.90;;;6.24;100.00;96924.63;5037671;28;19917;-40
2022/11/29 00:18:05;;;;;;;;;;;6.90;99.90;;;6.25;100.00;96935.06;5038900;28;19920;-40
2022/11/29 00:20:32;;;;;;;;;;;7.00;99.90;;;6.26;100.00;96926.31;5039030;28;19912;-40
2022/11/29 00:22:58;;;;;;;;;;;6.90;99.90;;;6.28;100.00;96928.88;5038163;28;19928;-40
2022/11/29 00:25:24;;;;;;;;;;;6.90;99.90;;;6.27;100.00;96927.16;5040792;28;19917;-40
2022/11/29 00:27:50;;;;;;;;;;;7.00;99.90;;;6.29;100.00;96923.59;5041999;28;20424;-40
2022/11/29 00:30:17;;;;;;;;;;;7.00;99.90;;;6.30;100.00;96927.94;5037305;28;20007;-40
2022/11/29 00:32:42;;;;;;;;;;;7.00;99.90;;;6.17;100.00;96902.97;5040242;28;20351;-40
2022/11/29 00:35:08;;;;;;;;;;;7.00;99.90;;;6.34;100.00;96930.47;5042081;28;20026;-40
2022/11/29 00:37:34;;;;;;;;;;;7.00;99.90;;;6.37;100.00;96930.38;5020082;28;20013;-40
2022/11/29 00:39:59;;;;;;;;;;;7.10;99.90;;;6.37;100.00;96925.13;5024770;28;19913;-41
2022/11/29 00:42:25;;;;;;;;;;;7.10;99.90;;;6.35;100.00;96921.69;5022702;28;19920;-41
2022/11/29 00:44:51;;;;;;;;;;;7.00;99.90;;;6.35;100.00;96930.41;5035264;28;19955;-41
2022/11/29 00:47:16;;;;;;;;;;;7.00;99.90;;;6.37;100.00;96926.00;5032194;28;20389;-40
2022/11/29 00:49:42;;;;;;;;;;;7.00;99.90;;;6.39;100.00;96933.81;5041483;28;19984;-40
2022/11/29 00:52:08;;;;;;;;;;;7.00;99.90;;;6.39;100.00;96928.56;5038073;28;19928;-40
2022/11/29 00:54:33;;;;;;;;;;;7.00;99.90;;;6.37;100.00;96925.13;5043704;28;19920;-42
2022/11/29 00:56:59;;;;;;;;;;;7.10;99.90;;;6.35;100.00;96932.19;5042912;28;19963;-41
2022/11/29 00:59:24;;;;;;;;;;;7.00;99.90;;;6.34;100.00;96935.72;5041756;28;19912;-41
2022/11/29 01:01:50;;;;;;;;;;;7.00;99.90;;;6.29;100.00;96922.72;5041617;28;19970;-42
2022/11/29 01:04:16;;;;;;;;;;;7.00;99.90;;;6.29;100.00;96933.22;5040123;28;19956;-41
2022/11/29 01:06:41;;;;;;;;;;;6.90;99.90;;;6.27;100.00;96941.09;5035909;28;20011;-43
2022/11/29 01:09:07;;;;;;;;;;;6.90;99.90;;;6.23;100.00;96934.25;5036565;28;19918;-42
2022/11/29 01:11:33;;;;;;;;;;;6.90;99.90;;;6.21;100.00;96938.66;5034667;28;19966;-41
2022/11/29 01:14:00;;;;;;;;;;;6.90;99.90;;;6.15;100.00;96924.88;5025627;28;19925;-41
2022/11/29 01:16:26;;;;;;;;;;;6.80;99.90;;;6.19;100.00;96939.59;5025849;28;20432;-42
2022/11/29 01:18:52;;;;;;;;;;;6.80;99.90;;;6.17;100.00;96946.63;5028178;28;19912;-42
2022/11/29 01:21:20;;;;;;;;;;;6.80;99.90;;;6.11;100.00;96929.31;5017555;28;19932;-41
2022/11/29 01:23:46;;;;;;;;;;;6.80;99.90;;;6.17;100.00;96939.63;5026783;28;20353;-42
2022/11/29 01:26:14;;;;;;;;;;;6.90;99.90;;;6.17;100.00;96939.63;5029623;28;20914;-41
2022/11/29 01:28:40;;;;;;;;;;;6.80;99.90;;;6.16;100.00;96943.16;5033468;28;19916;-41
2022/11/29 01:31:12;;;;;;;;;;;6.90;99.90;;;6.16;100.00;96943.16;5030089;28;19951;-42
2022/11/29 01:33:38;;;;;;;;;;;6.80;99.90;;;6.17;100.00;96944.88;5038619;28;19917;-41
2022/11/29 01:36:05;;;;;;;;;;;6.80;99.90;;;6.17;100.00;96942.25;5041131;28;19927;-42
2022/11/29 01:38:31;;;;;;;;;;;6.80;99.90;;;6.18;100.00;96943.97;5035536;28;19948;-41
2022/11/29 01:41:01;;;;;;;;;;;6.90;99.90;;;6.22;100.00;96942.13;5031109;28;19921;-41
2022/11/29 01:43:27;;;;;;;;;;;6.90;99.90;;;6.22;100.00;96940.38;5029399;28;19974;-41
2022/11/29 01:45:53;;;;;;;;;;;6.90;99.90;;;6.19;100.00;96934.34;5034887;28;19924;-41
2022/11/29 01:48:22;;;;;;;;;;;6.90;99.90;;;6.27;100.00;96946.34;5035785;28;20059;-41
2022/11/29 01:50:47;;;;;;;;;;;6.90;99.90;;;6.27;100.00;96935.88;5023677;28;19916;-41
2022/11/29 01:53:13;;;;;;;;;;;6.90;99.90;;;6.29;100.00;96930.59;5041659;28;19923;-41
2022/11/29 01:55:43;;;;;;;;;;;6.90;99.90;;;6.24;100.00;96924.63;5030464;28;19944;-41
2022/11/29 01:58:08;;;;;;;;;;;7.00;99.90;;;6.31;100.00;96940.09;5017424;28;19912;-41
2022/11/29 02:00:34;;;;;;;;;;;7.00;99.90;;;6.27;100.00;96933.25;5037344;28;19947;-42
2022/11/29 02:03:15;;;;;;;;;;;7.00;99.90;;;6.32;100.00;96930.53;5029364;28;20398;-41
2022/11/29 02:05:43;;;;;;;;;;;7.00;99.90;;;6.35;100.00;96937.41;5041847;28;20031;-42
2022/11/29 02:08:10;;;;;;;;;;;7.00;99.90;;;6.36;100.00;96931.28;5017878;28;19912;-41
2022/11/29 02:10:51;;;;;;;;;;;7.00;99.90;;;6.37;100.00;96938.22;5010156;28;19916;-41
2022/11/29 02:13:32;;;;;;;;;;;7.00;99.90;;;6.38;100.00;96937.34;5013251;28;19917;-42
2022/11/29 02:16:12;;;;;;;;;;;7.10;99.90;;;6.39;100.00;96944.28;5005121;28;20307;-41
2022/11/29 02:18:54;;;;;;;;;;;7.00;99.90;;;6.37;100.00;96938.22;5012871;28;19921;-41
2022/11/29 02:21:30;;;;;;;;;;;7.00;99.90;;;6.38;100.00;96946.06;5027846;28;19996;-42
2022/11/29 02:24:10;;;;;;;;;;;7.00;99.90;;;6.38;100.00;96942.59;5011569;28;20120;-41
2022/11/29 02:26:44;;;;;;;;;;;7.00;99.90;;;6.38;100.00;96939.97;5012227;28;19912;-42
2022/11/29 02:29:47;;;;;;;;;;;7.10;99.90;;;6.39;100.00;96939.03;5024324;28;20139;-41
2022/11/29 02:32:19;;;;;;;;;;;7.00;99.90;;;6.40;100.00;96939.00;5024868;28;19921;-41
2022/11/29 02:34:47;;;;;;;;;;;7.10;99.90;;;6.39;100.00;96934.69;5013620;28;19916;-41
2022/11/29 02:37:43;;;;;;;;;;;7.10;99.90;;;6.39;100.00;96944.28;5025813;28;20179;-41
2022/11/29 02:40:23;;;;;;;;;;;7.00;99.90;;;6.39;100.00;96939.03;5025723;28;19924;-42
2022/11/29 02:42:58;;;;;;;;;;;7.10;99.90;;;6.37;100.00;96941.72;5008756;28;19925;-41
2022/11/29 02:45:31;;;;;;;;;;;7.10;99.90;;;6.34;100.00;96938.34;5041120;28;19954;-41
2022/11/29 02:48:18;;;;;;;;;;;7.00;99.90;;;6.34;100.00;96935.72;5036866;28;19943;-41
2022/11/29 02:50:56;;;;;;;;;;;7.00;99.90;;;6.31;100.00;96949.75;5032424;28;19956;-41
2022/11/29 02:53:32;;;;;;;;;;;7.00;99.90;;;6.33;100.00;96944.47;5033549;28;19912;-42
2022/11/29 02:56:14;;;;;;;;;;;7.00;99.90;;;6.29;100.00;96949.78;5021120;28;19921;-42
2022/11/29 02:58:50;;;;;;;;;;;7.00;99.90;;;6.26;100.00;96947.25;5020337;28;19927;-41
2022/11/29 03:01:40;;;;;;;;;;;7.00;99.90;;;6.28;100.00;96952.44;5019908;28;19928;-41
2022/11/29 03:04:21;;;;;;;;;;;7.00;99.90;;;6.28;100.00;96952.44;5039748;28;19920;-42
2022/11/29 03:06:57;;;;;;;;;;;7.00;99.90;;;6.29;100.00;96946.31;5037101;28;19923;-41
2022/11/29 03:09:41;;;;;;;;;;;7.00;99.90;;;6.31;100.00;96947.97;5031477;28;20195;-41
2022/11/29 03:12:18;;;;;;;;;;;7.00;99.90;;;6.31;100.00;96953.19;5019462;28;19921;-41
2022/11/29 03:14:49;;;;;;;;;;;7.00;99.90;;;6.32;100.00;96951.47;5016587;28;19921;-42
2022/11/29 03:17:30;;;;;;;;;;;7.00;99.90;;;6.31;100.00;96958.44;5016001;28;19917;-41
2022/11/29 03:20:10;;;;;;;;;;;7.00;99.90;;;6.29;100.00;96962.03;5028236;28;20159;-41
2022/11/29 03:23:10;;;;;;;;;;;7.00;99.90;;;6.31;100.00;96957.59;5032795;28;19928;-42
2022/11/29 03:25:39;;;;;;;;;;;7.00;99.90;;;6.33;100.00;96965.41;5030713;28;19913;-41
2022/11/29 03:28:19;;;;;;;;;;;7.00;99.90;;;6.34;100.00;96969.75;5025448;28;19912;-41
2022/11/29 03:30:51;;;;;;;;;;;7.00;99.90;;;6.34;100.00;96967.16;5031245;28;19920;-41
2022/11/29 03:33:29;;;;;;;;;;;7.00;99.90;;;6.31;100.00;96968.06;5014830;28;20339;-40
2022/11/29 03:36:07;;;;;;;;;;;7.00;99.90;;;6.29;100.00;96970.72;5032409;28;20047;-41
2022/11/29 03:38:42;;;;;;;;;;;7.00;99.90;;;6.30;100.00;96967.22;5009449;28;19927;-40
2022/11/29 03:41:27;;;;;;;;;;;7.00;99.90;;;6.31;100.00;96968.91;5036227;28;19913;-40
2022/11/29 03:44:11;;;;;;;;;;;7.00;99.90;;;6.29;100.00;96965.50;5010386;28;19927;-40
2022/11/29 03:46:57;;;;;;;;;;;7.00;99.90;;;6.31;100.00;96966.31;5012340;28;19973;-40
2022/11/29 03:49:38;;;;;;;;;;;7.00;99.90;;;6.33;100.00;96965.41;5035990;28;19920;-40
2022/11/29 03:52:28;;;;;;;;;;;7.00;99.90;;;6.36;100.00;96973.19;5025508;28;19932;-40
2022/11/29 03:55:09;;;;;;;;;;;7.00;99.90;;;6.35;100.00;96974.94;5008589;28;19931;-41
2022/11/29 03:58:01;;;;;;;;;;;7.00;99.90;;;6.35;100.00;96974.09;5032134;28;19917;-41
2022/11/29 04:00:34;;;;;;;;;;;7.00;99.90;;;6.38;100.00;96976.63;5026300;28;20174;-41
2022/11/29 04:03:06;;;;;;;;;;;7.00;99.90;;;6.39;100.00;96981.84;5013462;28;19917;-40
2022/11/29 04:06:05;;;;;;;;;;;7.10;99.90;;;6.42;100.00;96978.25;5035436;28;19913;-41
2022/11/29 04:09:08;;;;;;;;;;;7.10;99.90;;;6.43;100.00;96986.06;5032290;28;19919;-40
2022/11/29 04:12:03;;;;;;;;;;;7.10;99.90;;;6.46;100.00;96982.50;5037523;28;20573;-41
2022/11/29 04:15:01;;;;;;;;;;;7.10;99.90;;;6.47;100.00;96979.00;5013336;28;20471;-40
2022/11/29 04:17:51;;;;;;;;;;;7.20;99.90;;;6.49;100.00;96985.03;5021164;28;19989;-41
2022/11/29 04:20:39;;;;;;;;;;;7.20;99.90;;;6.47;100.00;96977.22;5029494;28;20004;-40
2022/11/29 04:23:04;;;;;;;;;;;7.20;99.90;;;6.45;100.00;96986.03;5026276;28;20223;-40
2022/11/29 04:26:11;;;;;;;;;;;7.20;99.90;;;6.46;100.00;96987.75;5021765;28;19916;-41
2022/11/29 04:29:03;;;;;;;;;;;7.20;99.90;;;6.43;100.00;96987.84;5004576;28;20145;-40
2022/11/29 04:31:31;;;;;;;;;;;7.20;99.90;;;6.42;100.00;96988.72;4997573;28;19927;-41
2022/11/29 04:34:19;;;;;;;;;;;7.10;99.90;;;6.41;100.00;96993.13;5027192;28;19971;-40
2022/11/29 04:36:48;;;;;;;;;;;7.10;99.90;;;6.40;100.00;96990.53;5013004;28;20010;-40
2022/11/29 04:39:27;;;;;;;;;;;7.10;99.90;;;6.36;100.00;96996.78;5022693;28;19936;-40
2022/11/29 04:42:02;;;;;;;;;;;7.10;99.90;;;6.34;100.00;96995.97;5001088;28;21563;-40
2022/11/29 04:45:02;;;;;;;;;;;7.10;99.90;;;6.33;100.00;96999.47;5031629;28;19916;-40
2022/11/29 04:47:45;;;;;;;;;;;7.10;99.90;;;6.33;100.00;96999.47;5041844;28;19912;-40
2022/11/29 04:50:17;;;;;;;;;;;7.00;99.90;;;6.31;100.00;97000.34;5041175;28;19978;-41
2022/11/29 04:52:57;;;;;;;;;;;7.00;99.90;;;6.29;100.00;97007.38;5026326;28;19912;-41
2022/11/29 04:55:35;;;;;;;;;;;7.00;99.90;;;6.25;100.00;97000.53;5040239;28;20421;-40
2022/11/29 04:58:12;;;;;;;;;;;7.00;99.90;;;6.23;100.00;97001.47;5032454;28;19916;-40
2022/11/29 05:00:46;;;;;;;;;;;6.90;99.90;;;6.18;100.00;96996.34;5033761;28;19916;-40
2022/11/29 05:03:22;;;;;;;;;;;6.90;99.90;;;6.22;100.00;97012.84;5021292;28;19920;-40
2022/11/29 05:06:02;;;;;;;;;;;6.90;99.90;;;6.06;100.00;96994.03;5016157;28;20010;-40
2022/11/29 05:08:33;;;;;;;;;;;6.90;99.90;;;6.17;100.00;97012.94;5021865;28;19966;-40
2022/11/29 05:11:20;;;;;;;;;;;6.90;99.90;;;6.15;100.00;97012.13;5032881;28;20456;-40
2022/11/29 05:13:54;;;;;;;;;;;6.90;99.90;;;6.15;100.00;97022.59;5013590;28;20381;-40
2022/11/29 05:16:57;;;;;;;;;;;6.90;99.90;;;6.14;100.00;97018.28;5038566;28;19926;-40
2022/11/29 05:19:54;;;;;;;;;;;6.80;99.90;;;6.11;100.00;97015.72;5041749;28;19966;-40
2022/11/29 05:22:27;;;;;;;;;;;6.80;99.90;;;6.13;100.00;97021.78;5012339;28;21621;-41
2022/11/29 05:25:17;;;;;;;;;;;6.90;99.90;;;6.16;100.00;97018.25;5006648;28;19958;-40
2022/11/29 05:27:46;;;;;;;;;;;6.90;99.90;;;6.11;100.00;97024.44;5010534;28;19939;-40
2022/11/29 05:30:21;;;;;;;;;;;6.80;99.90;;;6.12;100.00;97030.56;5017297;28;19926;-40
2022/11/29 05:33:08;;;;;;;;;;;6.80;99.90;;;6.06;100.00;97014.97;5020496;28;19914;-40
2022/11/29 05:36:05;;;;;;;;;;;6.80;99.90;;;6.13;100.00;97031.41;5022312;28;19921;-40
2022/11/29 05:38:54;;;;;;;;;;;6.80;99.90;;;6.09;100.00;97025.38;5002930;28;19924;-40
2022/11/29 05:41:39;;;;;;;;;;;6.80;99.90;;;6.09;100.00;97028.84;5021171;28;19920;-40
2022/11/29 05:44:07;;;;;;;;;;;6.80;99.90;;;6.12;100.00;97030.56;5037324;28;20443;-40
2022/11/29 05:46:41;;;;;;;;;;;6.80;99.90;;;6.14;100.00;97039.22;5037119;28;20538;-40
2022/11/29 05:49:26;;;;;;;;;;;6.80;99.90;;;6.15;100.00;97035.69;5021033;28;19993;-40
2022/11/29 05:51:58;;;;;;;;;;;6.80;99.90;;;6.14;100.00;97027.88;5039680;28;19924;-40
2022/11/29 05:54:33;;;;;;;;;;;6.90;99.90;;;6.14;100.00;97038.34;5039855;28;19917;-40
2022/11/29 05:57:21;;;;;;;;;;;6.80;99.90;;;6.14;100.00;97033.97;5029777;28;19913;-40
2022/11/29 05:59:48;;;;;;;;;;;6.90;99.90;;;6.14;100.00;97040.97;5019864;28;20203;-40
2022/11/29 06:02:26;;;;;;;;;;;6.80;99.90;;;6.13;100.00;97041.88;5020140;28;20287;-40
2022/11/29 06:05:10;;;;;;;;;;;6.80;99.90;;;6.13;100.00;97040.09;5032022;28;19919;-40
2022/11/29 06:08:15;;;;;;;;;;;6.90;99.90;;;6.13;100.00;97037.50;5023740;28;19925;-40
2022/11/29 06:10:55;;;;;;;;;;;6.80;99.90;;;6.14;100.00;97041.84;4986747;28;19928;-40
2022/11/29 06:13:58;;;;;;;;;;;6.90;99.90;;;6.13;100.00;97045.34;5033348;28;19920;-41
2022/11/29 06:16:39;;;;;;;;;;;6.80;99.90;;;6.13;100.00;97042.72;5038600;28;19935;-40
2022/11/29 06:19:43;;;;;;;;;;;6.80;99.90;;;6.14;100.00;97052.31;5022799;28;19916;-40
2022/11/29 06:22:29;;;;;;;;;;;6.80;99.90;;;6.16;100.00;97049.66;5020057;28;19932;-40
2022/11/29 06:25:15;;;;;;;;;;;6.90;99.90;;;6.15;100.00;97054.00;5018946;28;19917;-40
2022/11/29 06:27:47;;;;;;;;;;;6.90;99.90;;;6.15;100.00;97061.88;5026608;28;19924;-40
2022/11/29 06:30:14;;;;;;;;;;;6.90;99.90;;;6.15;100.00;97063.63;5021018;28;19948;-41
2022/11/29 06:32:45;;;;;;;;;;;6.90;99.90;;;6.14;100.00;97065.41;5032318;28;19923;-41
2022/11/29 06:35:34;;;;;;;;;;;6.90;99.90;;;6.12;100.00;97069.81;5025529;28;19921;-41
2022/11/29 06:38:10;;;;;;;;;;;6.80;99.90;;;6.12;100.00;97072.44;5045038;28;19920;-41
2022/11/29 06:40:35;;;;;;;;;;;6.80;99.90;;;6.13;100.00;97068.91;5026648;28;19916;-41
2022/11/29 06:43:01;;;;;;;;;;;6.90;99.90;;;6.12;100.00;97082.91;5030895;28;19913;-41
2022/11/29 06:45:27;;;;;;;;;;;6.90;99.90;;;6.10;100.00;97076.81;5036632;28;19920;-42
2022/11/29 06:48:04;;;;;;;;;;;6.90;99.90;;;6.14;100.00;97078.50;5040626;28;20530;-41
2022/11/29 06:50:57;;;;;;;;;;;6.80;99.90;;;6.14;100.00;97065.41;5042626;28;19913;-41
2022/11/29 06:53:33;;;;;;;;;;;6.80;99.90;;;6.13;100.00;97071.53;5028393;28;19916;-40
2022/11/29 06:56:20;;;;;;;;;;;6.80;99.90;;;6.16;100.00;97086.31;5011098;28;20365;-42
2022/11/29 06:59:13;;;;;;;;;;;6.90;99.90;;;6.16;100.00;97086.31;5021153;28;19912;-42
2022/11/29 07:01:46;;;;;;;;;;;6.90;99.90;;;6.17;100.00;97090.63;5030580;28;20368;-41
2022/11/29 07:04:19;;;;;;;;;;;6.90;99.90;;;6.15;100.00;97077.56;5029966;28;20165;-41
2022/11/29 07:06:45;;;;;;;;;;;6.90;99.90;;;6.14;100.00;97086.34;5043956;28;19920;-41
2022/11/29 07:09:16;;;;;;;;;;;6.90;99.90;;;6.18;100.00;97098.47;5047174;28;20245;-42
2022/11/29 07:11:42;;;;;;;;;;;6.90;99.90;;;6.20;100.00;97095.81;5046409;28;19958;-41
2022/11/29 07:14:08;;;;;;;;;;;6.90;99.90;;;6.25;100.00;97099.19;5048880;28;20612;-41
2022/11/29 07:17:12;;;;;;;;;;;7.00;99.90;;;6.17;100.00;97082.78;5045049;28;19913;-41
2022/11/29 07:20:13;;;;;;;;;;;7.00;99.90;;;6.27;100.00;97108.72;4975730;28;20322;-40
2022/11/29 07:23:03;;;;;;;;;;;7.00;99.90;;;6.27;100.00;97106.09;5004981;28;19927;-40
2022/11/29 07:25:43;;;;;;;;;;;7.00;99.90;;;6.28;100.00;97115.69;5045288;28;20258;-40
2022/11/29 07:28:27;;;;;;;;;;;7.00;99.90;;;6.30;100.00;97111.25;5024218;28;19990;-40
2022/11/29 07:31:44;;;;;;;;;;;7.00;99.90;;;6.34;100.00;97112.03;5038807;28;19921;-41
2022/11/29 07:34:38;;;;;;;;;;;7.00;99.90;;;6.37;100.00;97117.22;4981382;28;19948;-40
2022/11/29 07:37:26;;;;;;;;;;;7.10;99.90;;;6.36;100.00;97119.88;5041171;28;19948;-41
2022/11/29 07:39:58;;;;;;;;;;;7.10;99.90;;;6.39;100.00;97114.53;5044759;28;19912;-40
2022/11/29 07:42:47;;;;;;;;;;;7.10;99.90;;;6.39;100.00;97114.53;5031418;28;19912;-40
2022/11/29 07:45:35;;;;;;;;;;;7.10;99.90;;;6.39;100.00;97112.78;5002406;28;19924;-41
2022/11/29 07:48:01;;;;;;;;;;;7.10;99.90;;;6.35;100.00;97105.03;5046178;28;20277;-41
2022/11/29 07:50:27;;;;;;;;;;;7.10;99.90;;;6.42;100.00;97115.31;5039905;28;19995;-40
2022/11/29 07:52:54;;;;;;;;;;;7.10;99.90;;;6.42;100.00;97117.94;5026940;28;19924;-41
2022/11/29 07:55:21;;;;;;;;;;;7.10;99.90;;;6.40;100.00;97124.97;5029465;28;19921;-40
2022/11/29 07:57:47;;;;;;;;;;;7.20;99.90;;;6.41;100.00;97131.09;5044684;28;19912;-40
2022/11/29 08:00:14;;;;;;;;;;;7.10;99.90;;;6.42;100.00;97132.81;5039289;28;19934;-40
2022/11/29 08:03:05;;;;;;;;;;;7.20;99.90;;;6.44;100.00;97131.00;5028494;28;19912;-41
2022/11/29 08:05:31;;;;;;;;;;;7.20;99.90;;;6.46;100.00;97126.56;5040112;28;19999;-43
2022/11/29 08:07:56;;;;;;;;;;;7.20;99.90;;;6.22;100.00;97091.38;5041135;28;20379;-42
2022/11/29 08:10:22;;;;;;;;;;;7.20;99.90;;;6.49;100.00;97129.13;5042828;28;19916;-41
2022/11/29 08:12:49;;;;;;;;;;;7.20;99.90;;;6.50;100.00;97136.09;5044777;28;19918;-41
2022/11/29 08:15:16;;;;;;;;;;;7.20;99.90;;;6.45;100.00;97136.22;5043695;28;19920;-41
2022/11/29 08:17:42;;;;;;;;;;;7.20;99.90;;;6.43;100.00;97134.53;5050310;28;19909;-41
2022/11/29 08:20:09;;;;;;;;;;;7.20;99.90;;;6.52;100.00;97134.31;5047096;28;19975;-42
2022/11/29 08:22:35;;;;;;;;;;;7.20;99.90;;;6.54;100.00;97136.88;5053291;28;19908;-42
2022/11/29 08:25:00;;;;;;;;;;;7.30;99.90;;;6.57;100.00;97139.41;5046812;28;20015;-41
2022/11/29 08:27:26;;;;;;;;;;;7.30;99.90;;;6.58;100.00;97144.63;5049751;28;19916;-41
2022/11/29 08:29:52;;;;;;;;;;;7.30;99.90;;;6.54;100.00;97136.88;5050220;28;20260;-41
2022/11/29 08:32:17;;;;;;;;;;;7.30;99.90;;;6.53;100.00;97145.63;5045957;28;20132;-40
2022/11/29 08:34:43;;;;;;;;;;;7.30;99.90;;;6.55;100.00;97146.44;5047692;28;19924;-41
2022/11/29 08:37:09;;;;;;;;;;;7.30;99.90;;;6.56;100.00;97151.66;5051929;28;19995;-41
2022/11/29 08:39:34;;;;;;;;;;;7.30;99.90;;;6.52;100.00;97150.03;5049264;28;20450;-41
2022/11/29 08:42:00;;;;;;;;;;;7.30;99.90;;;6.58;100.00;97156.88;5049059;28;20363;-40
2022/11/29 08:44:25;;;;;;;;;;;7.30;99.90;;;6.49;100.00;97134.38;5049531;28;19916;-41
2022/11/29 08:49:59;;;;;;;;;;;7.30;99.90;;;6.47;100.00;97149.28;5045624;28;19920;-40
2022/11/29 08:55:05;;;;;;;;;;;7.30;99.90;;;6.58;100.00;97160.34;5050701;28;20045;-40
2022/11/29 08:57:31;;;;;;;;;;;7.30;99.90;;;6.57;100.00;97161.25;5048550;28;20364;-41
2022/11/29 08:59:57;;;;;;;;;;;7.30;99.90;;;6.60;100.00;97157.69;5046949;28;20377;-40
2022/11/29 09:02:22;;;;;;;;;;;7.30;99.90;;;6.60;100.00;97162.91;5046321;28;20194;-41
2022/11/29 09:04:48;;;;;;;;;;;7.30;99.90;;;6.64;100.00;97167.19;5045163;28;19959;-40
2022/11/29 09:07:14;;;;;;;;;;;7.40;99.90;;;6.66;100.00;97168.88;5050687;28;19914;-39
2022/11/29 09:09:40;;;;;;;;;;;7.40;99.90;;;6.69;100.00;97163.56;5050089;28;19919;-41
2022/11/29 09:12:07;;;;;;;;;;;7.40;99.90;;;6.76;100.00;97173.88;5050118;28;19909;-41
2022/11/29 09:14:33;;;;;;;;;;;7.50;99.90;;;6.77;100.00;97173.00;5048988;28;20012;-42
2022/11/29 09:17:00;;;;;;;;;;;7.50;99.90;;;6.77;100.00;97179.09;5040677;28;19989;-42
2022/11/29 09:19:26;;;;;;;;;;;7.50;99.90;;;6.81;100.00;97182.50;5045116;28;19912;-42
2022/11/29 09:21:52;;;;;;;;;;;7.50;99.90;;;6.79;100.00;97171.19;5048500;28;19916;-42
2022/11/29 09:24:19;;;;;;;;;;;7.50;99.90;;;6.80;100.00;97171.16;5053182;28;19909;-41
2022/11/29 09:26:47;;;;;;;;;;;7.60;99.90;;;6.85;100.00;97181.50;5047544;28;19966;-40
2022/11/29 09:29:14;;;;;;;;;;;7.60;99.90;;;6.85;100.00;97184.13;5048271;28;19967;-41
2022/11/29 09:31:41;;;;;;;;;;;7.60;99.90;;;6.87;100.00;97188.44;5043315;28;19928;-41
2022/11/29 09:34:06;;;;;;;;;;;7.60;99.90;;;6.93;100.00;97189.16;5047167;28;20011;-41
2022/11/29 09:36:32;;;;;;;;;;;7.60;99.90;;;6.91;100.00;97194.47;5050086;28;20379;-41
2022/11/29 09:39:01;;;;;;;;;;;7.60;99.90;;;6.91;100.00;97189.25;5037946;28;19917;-41
2022/11/29 09:41:52;;;;;;;;;;;7.70;99.90;;;6.94;100.00;97194.38;5044383;28;19927;-41
2022/11/29 09:44:27;;;;;;;;;;;7.70;99.90;;;6.90;100.00;97200.59;5033223;28;19955;-41
2022/11/29 09:47:04;;;;;;;;;;;7.70;99.90;;;6.94;100.00;97196.16;5047325;28;19986;-41
2022/11/29 09:49:36;;;;;;;;;;;7.70;99.90;;;6.95;100.00;97203.97;5029491;28;20415;-41
2022/11/29 09:52:07;;;;;;;;;;;7.60;99.90;;;6.93;100.00;97210.13;5048579;28;19951;-41
2022/11/29 09:55:02;;;;;;;;;;;7.60;99.90;;;6.84;100.00;97206.88;5031712;28;19916;-41
2022/11/29 09:57:29;;;;;;;;;;;7.60;99.90;;;6.79;100.00;97206.13;5033159;28;20704;-41
2022/11/29 09:59:58;;;;;;;;;;;7.50;99.90;;;6.76;100.00;97200.09;5024916;28;19917;-41
2022/11/29 10:02:47;;;;;;;;;;;7.50;99.90;;;6.74;100.00;97207.13;5034882;28;19954;-41
2022/11/29 10:05:20;;;;;;;;;;;7.50;99.90;;;6.72;100.00;97207.16;5030537;28;19954;-41
2022/11/29 10:07:49;;;;;;;;;;;7.40;99.90;;;6.79;100.00;97213.13;5048298;28;20259;-41
2022/11/29 10:10:40;;;;;;;;;;;7.50;99.90;;;6.77;100.00;97209.69;5026141;28;20191;-42
2022/11/29 10:13:22;;;;;;;;;;;7.40;99.90;;;6.72;100.00;97212.41;5042198;22;20340;-59
2022/11/29 10:15:52;;;;;;;;;;;7.40;99.90;;;6.66;100.00;97209.97;5008687;28;19942;-59
2022/11/29 10:18:22;;;;;;;;;;;7.40;99.90;;;6.71;100.00;97215.06;5011203;28;19923;-59
2022/11/29 10:20:52;;;;;;;;;;;7.40;99.90;;;6.66;100.00;97215.19;5013740;28;20265;-59
2022/11/29 10:23:56;;;;;;;;;;;7.40;99.90;;;6.71;100.00;97208.06;5007807;28;19924;-59
2022/11/29 10:26:23;;;;;;;;;;;7.40;99.90;;;6.77;100.00;97210.53;5005271;28;19932;-59
2022/11/29 10:28:49;;;;;;;;;;;7.40;99.90;;;6.80;100.00;97209.59;5027389;28;19952;-59
2022/11/29 10:31:23;;;;;;;;;;;7.50;99.90;;;6.80;100.00;97210.47;5007797;28;19920;-59
2022/11/29 10:33:49;;;;;;;;;;;7.50;99.90;;;6.77;100.00;97207.06;5026138;28;19939;-59
2022/11/29 10:36:23;;;;;;;;;;;7.50;99.90;;;6.78;100.00;97212.25;5030947;28;20360;-59
2022/11/29 10:38:49;;;;;;;;;;;7.50;99.90;;;6.80;100.00;97201.72;5026509;28;20078;-59
2022/11/29 10:41:19;;;;;;;;;;;7.50;99.90;;;6.82;100.00;97206.06;5028695;28;19917;-59
2022/11/29 10:43:44;;;;;;;;;;;7.50;99.90;;;6.87;100.00;97205.91;5027644;28;19921;-59
2022/11/29 10:46:20;;;;;;;;;;;7.60;99.90;;;6.88;100.00;97213.75;5004251;28;19913;-59
2022/11/29 10:48:45;;;;;;;;;;;7.60;99.90;;;6.94;100.00;97215.34;5017994;28;19921;-59
2022/11/29 10:51:15;;;;;;;;;;;7.60;99.90;;;6.95;100.00;97201.34;5003875;28;19919;-59
2022/11/29 10:53:41;;;;;;;;;;;7.70;99.90;;;6.99;100.00;97210.00;5011290;28;19915;-59
2022/11/29 10:56:22;;;;;;;;;;;7.70;99.90;;;7.01;100.00;97202.97;5027161;28;19913;-59
2022/11/29 10:58:54;;;;;;;;;;;7.70;99.90;;;7.02;100.00;97207.31;5026889;28;19917;-59
2022/11/29 11:01:19;;;;;;;;;;;7.70;99.90;;;6.97;100.00;97210.03;5029725;28;19916;-59
2022/11/29 11:03:53;;;;;;;;;;;7.70;99.90;;;6.91;100.00;97207.59;5012175;28;19909;-59
2022/11/29 11:06:24;;;;;;;;;;;7.70;99.90;;;6.94;100.00;97206.63;5007396;28;20368;-59
2022/11/29 11:08:52;;;;;;;;;;;7.60;99.90;;;6.91;100.00;97218.06;5027388;28;19909;-59
2022/11/29 11:11:29;;;;;;;;;;;7.60;99.90;;;6.85;100.00;97213.81;5012308;28;19909;-59
2022/11/29 11:14:02;;;;;;;;;;;7.60;99.90;;;6.84;100.00;97214.75;5006978;28;19921;-59
2022/11/29 11:16:28;;;;;;;;;;;7.50;99.90;;;6.83;100.00;97220.88;5027124;28;19963;-59
2022/11/29 11:18:54;;;;;;;;;;;7.50;99.90;;;6.78;100.00;97220.13;5028581;28;20414;-59
2022/11/29 11:21:22;;;;;;;;;;;7.50;99.90;;;6.78;100.00;97209.63;5025403;28;19923;-59
2022/11/29 11:24:01;;;;;;;;;;;7.50;99.90;;;6.81;100.00;97214.81;5026883;28;19924;-59
2022/11/29 11:26:40;;;;;;;;;;;7.50;99.90;;;6.82;100.00;97210.41;5009491;28;19920;-59
2022/11/29 11:29:05;;;;;;;;;;;7.50;99.90;;;6.76;100.00;97208.81;5007935;28;19913;-59
2022/11/29 11:31:33;;;;;;;;;;;7.50;99.90;;;6.68;100.00;97197.69;5027882;28;20430;-59
2022/11/29 11:34:26;;;;;;;;;;;7.50;99.90;;;6.73;100.00;97211.53;5028487;28;19920;-59
2022/11/29 11:36:53;;;;;;;;;;;7.40;99.90;;;6.75;100.00;97214.97;5029710;28;20357;-59
2022/11/29 11:39:21;;;;;;;;;;;7.50;99.90;;;6.77;100.00;97215.78;5021705;28;19917;-59
2022/11/29 11:44:37;;;;;;;;;;;7.50;99.90;;;6.77;100.00;97220.19;5026023;28;19927;-59
2022/11/29 11:47:05;;;;;;;;;;;7.50;99.90;;;6.79;100.00;97221.00;5029831;28;20285;-59
2022/11/29 11:49:52;;;;;;;;;;;7.50;99.90;;;6.79;100.00;97218.38;5028356;28;19913;-59
2022/11/29 11:52:23;;;;;;;;;;;7.50;99.90;;;6.76;100.00;97227.16;5011225;28;20007;-59
2022/11/29 11:54:53;;;;;;;;;;;7.50;99.90;;;6.77;100.00;97230.66;5030302;28;20401;-59
2022/11/29 11:57:21;;;;;;;;;;;7.50;99.90;;;6.81;100.00;97225.28;5030214;28;19913;-59
2022/11/29 11:59:49;;;;;;;;;;;7.50;99.90;;;6.84;100.00;97230.47;5027630;28;19917;-59
2022/11/29 12:02:46;;;;;;;;;;;7.50;99.90;;;6.87;100.00;97230.41;5028410;28;20495;-59
2022/11/29 12:05:15;;;;;;;;;;;7.60;99.90;;;6.91;100.00;97223.31;4989021;28;19924;-59
2022/11/29 12:07:45;;;;;;;;;;;7.60;99.90;;;6.96;100.00;97224.03;5032091;28;19908;-59